LKTA weather

Tábor Airport
Tábor, South Bohemian Region, Czechia

Public forecast

Using degrees Celsius for public forecast. Weather courtesy of forecast.io.

METAR (pilot weather report)

Closest report is Čáslav Air Base, 42.1 nm (77.9 km) NE. Retrieved 2019/07/18 14:00 UTC (26 minutes ago):

LKCV 181400Z 30004KT 250V340 CAVOK 25/09 Q1012 NOSIG RMK BLU BLU

TAF (pilot weather forecast)

Closest forecast is Čáslav Air Base, 42.1 nm (77.9 km) NE. Retrieved 2019/07/18 12:00 UTC (2 hours ago):

TAF LKCV 181100Z 1812/1912 30005KT CAVOK PROB40 TEMPO 1812/1819 31015KT 7000 SHRA BKN040TCU BECMG 1819/1822 VRB02KT BECMG 1904/1906 9999 BKN030 TEMPO 1908/1912 8000 RA BKN022